createdAt,value
2022-10-24T00:00:08.192Z,65.06
2022-10-24T00:03:08.166Z,64.89
2022-10-24T00:05:08.284Z,65.06
2022-10-24T00:07:08.393Z,64.93
2022-10-24T00:10:08.153Z,64.78
2022-10-24T00:12:08.166Z,64.83
2022-10-24T00:15:08.191Z,64.79
2022-10-24T00:18:08.182Z,64.69
2022-10-24T00:20:08.184Z,64.63
2022-10-24T00:22:08.144Z,64.77
2022-10-24T00:25:08.182Z,64.47
2022-10-24T00:27:08.185Z,65.09
2022-10-24T00:29:08.205Z,64.58
2022-10-24T00:32:08.182Z,64.81
2022-10-24T00:35:08.169Z,65
2022-10-24T00:38:08.201Z,64.47
2022-10-24T00:41:08.151Z,64.72
2022-10-24T00:43:08.429Z,64.63
2022-10-24T00:46:08.177Z,64.79
2022-10-24T00:48:08.165Z,65.11
2022-10-24T00:50:08.147Z,64.89
2022-10-24T00:53:08.228Z,64.72
2022-10-24T00:56:08.185Z,64.89
2022-10-24T00:59:08.185Z,64.86
2022-10-24T01:02:08.532Z,65
2022-10-24T01:05:08.170Z,64.74
2022-10-24T01:08:08.167Z,64.9
2022-10-24T01:11:08.143Z,64.67
2022-10-24T01:13:08.179Z,64.83
2022-10-24T01:15:08.174Z,64.84
2022-10-24T01:17:18.410Z,64.6
2022-10-24T01:20:08.193Z,64.89
2022-10-24T01:22:08.178Z,64.72
2022-10-24T01:25:08.144Z,65.15
2022-10-24T01:28:08.180Z,64.77
2022-10-24T01:30:08.200Z,64.6
2022-10-24T01:33:08.165Z,64.88
2022-10-24T01:35:08.153Z,64.79
2022-10-24T01:37:08.183Z,64.52
2022-10-24T01:40:08.158Z,65.25
2022-10-24T01:43:08.163Z,64.67
2022-10-24T01:46:08.193Z,64.61
2022-10-24T01:49:08.159Z,64.8
2022-10-24T01:52:08.217Z,64.63
2022-10-24T01:54:08.161Z,64.61
2022-10-24T01:57:08.142Z,64.52
2022-10-24T01:59:08.143Z,64.74
2022-10-24T02:01:08.232Z,64.78
2022-10-24T02:04:08.174Z,64.47
2022-10-24T02:07:08.170Z,64.38
2022-10-24T02:10:08.151Z,64.4
2022-10-24T02:12:08.193Z,64.25
2022-10-24T02:15:08.203Z,64.19
2022-10-24T02:17:08.214Z,64.24
2022-10-24T02:20:08.158Z,64.28
2022-10-24T02:22:08.200Z,64.29
2022-10-24T02:25:08.164Z,64.47
2022-10-24T02:27:08.293Z,64.3
2022-10-24T02:30:08.201Z,64.25
2022-10-24T02:33:08.155Z,64.28
2022-10-24T02:35:08.178Z,64.39
2022-10-24T02:38:08.167Z,64.63
2022-10-24T02:41:08.158Z,64.39
2022-10-24T02:43:08.224Z,64.72
2022-10-24T02:46:08.187Z,64.31
2022-10-24T02:48:08.215Z,64.38
2022-10-24T02:51:08.166Z,64.58
2022-10-24T02:54:08.212Z,64.67
2022-10-24T02:57:08.316Z,64.77
2022-10-24T03:00:08.161Z,65.09
2022-10-24T03:02:08.166Z,64.6
2022-10-24T03:05:08.154Z,64.69
2022-10-24T03:08:08.205Z,64.38
2022-10-24T03:11:08.145Z,64.46
2022-10-24T03:13:08.160Z,64.54
2022-10-24T03:16:10.226Z,64.62
2022-10-24T03:19:08.191Z,64.59
2022-10-24T03:21:08.198Z,64.24
2022-10-24T03:27:08.183Z,64.41
2022-10-24T03:29:08.186Z,64.39
2022-10-24T03:32:08.216Z,64.52
2022-10-24T03:35:10.298Z,64.74
2022-10-24T03:37:08.198Z,65.04
2022-10-24T03:40:08.214Z,64.61
2022-10-24T03:43:08.166Z,64.82
2022-10-24T03:45:08.176Z,64.62
2022-10-24T03:47:08.275Z,64.27
2022-10-24T03:50:08.161Z,64.9
2022-10-24T03:52:08.172Z,64.48
2022-10-24T03:55:08.188Z,64.75
2022-10-24T03:57:08.209Z,64.21
2022-10-24T03:59:08.269Z,64.34
2022-10-24T04:01:15.394Z,64.48
2022-10-24T04:04:08.217Z,64.37
2022-10-24T04:07:08.225Z,64.2
2022-10-24T04:09:08.204Z,64.33
2022-10-24T04:12:08.161Z,64.15
2022-10-24T04:14:08.637Z,64.93
2022-10-24T04:17:08.170Z,64.54
2022-10-24T04:19:08.198Z,64.94
2022-10-24T04:22:08.237Z,64.79
2022-10-24T04:24:08.186Z,64.57
2022-10-24T04:27:08.241Z,64.74
2022-10-24T04:30:09.202Z,64.95
2022-10-24T04:32:08.191Z,64.71
2022-10-24T04:35:08.205Z,64.41
2022-10-24T04:38:08.193Z,64.27
2022-10-24T04:40:08.233Z,64.48
2022-10-24T04:43:08.226Z,64.87
2022-10-24T04:46:08.181Z,64.73
2022-10-24T04:48:08.203Z,64.85
2022-10-24T04:50:08.195Z,64.78
2022-10-24T04:52:08.199Z,64.78
2022-10-24T04:55:08.261Z,64.83
2022-10-24T04:58:08.198Z,65.45
2022-10-24T05:01:02.817Z,64.7
2022-10-24T05:03:08.617Z,65.18
2022-10-24T05:06:08.246Z,64.99
2022-10-24T05:09:08.198Z,64.65
2022-10-24T05:11:08.200Z,64.59
2022-10-24T05:14:08.180Z,64.57
2022-10-24T05:16:08.222Z,64.19
2022-10-24T05:19:08.229Z,64.57
2022-10-24T05:22:09.986Z,64.7
2022-10-24T05:24:08.175Z,64.38
2022-10-24T05:27:08.222Z,64.37
2022-10-24T05:30:08.216Z,64.5
2022-10-24T05:33:08.205Z,64.38
2022-10-24T05:35:08.266Z,64.82
2022-10-24T05:38:08.229Z,64.52
2022-10-24T05:41:08.208Z,64.24
2022-10-24T05:44:08.217Z,64.14
2022-10-24T05:46:08.185Z,63.96
2022-10-24T05:48:08.212Z,64.36
2022-10-24T05:50:08.422Z,64.11
2022-10-24T05:53:08.181Z,64.13
2022-10-24T05:55:08.697Z,63.85
2022-10-24T05:57:08.212Z,63.91
2022-10-24T05:59:08.234Z,64.08
2022-10-24T06:02:08.287Z,64.17
2022-10-24T06:04:09.988Z,64.09
2022-10-24T06:07:08.196Z,64.41
2022-10-24T06:09:08.194Z,64.14
2022-10-24T06:11:08.217Z,64.4
2022-10-24T06:13:08.206Z,64.23
2022-10-24T06:16:08.205Z,64.1
2022-10-24T06:19:08.200Z,64.22
2022-10-24T06:22:08.482Z,64.01
2022-10-24T06:25:08.184Z,64.69
2022-10-24T06:30:08.221Z,64.19
2022-10-24T06:33:08.231Z,64.16
2022-10-24T06:35:08.201Z,63.86
2022-10-24T06:38:08.234Z,64.12
2022-10-24T06:41:08.270Z,64
2022-10-24T06:44:10.935Z,64.16
2022-10-24T06:46:08.210Z,64.79
2022-10-24T06:48:08.256Z,64.5
2022-10-24T06:51:08.253Z,64.2
2022-10-24T06:54:08.222Z,64.31
2022-10-24T06:57:08.217Z,64.97
2022-10-24T06:59:08.267Z,66.45
2022-10-24T07:02:08.276Z,66
2022-10-24T07:04:08.247Z,65.37
2022-10-24T07:07:08.239Z,65.2
2022-10-24T07:09:10.284Z,65.73
2022-10-24T07:12:08.352Z,65.87
2022-10-24T07:15:08.215Z,66.9
2022-10-24T07:17:08.341Z,66.1
2022-10-24T07:20:08.252Z,65.57
2022-10-24T07:23:08.215Z,65.91
2022-10-24T07:25:08.222Z,67.2
2022-10-24T07:29:08.219Z,66.71
2022-10-24T07:32:08.236Z,66.42
2022-10-24T07:35:08.199Z,67.91
2022-10-24T07:37:08.215Z,68.24
2022-10-24T07:40:08.231Z,67.12
2022-10-24T07:43:08.232Z,67.55
2022-10-24T07:46:08.229Z,66.56
2022-10-24T07:49:08.253Z,67.83
2022-10-24T07:52:08.208Z,68.53
2022-10-24T07:54:08.288Z,67.1
2022-10-24T07:57:08.197Z,67.11
2022-10-24T07:59:09.297Z,67.07
2022-10-24T08:02:08.220Z,67.77
2022-10-24T08:05:08.223Z,68.06
2022-10-24T08:08:31.232Z,67.89
2022-10-24T08:10:08.223Z,67.41
2022-10-24T08:12:08.220Z,67.7
2022-10-24T08:15:08.223Z,68.79
2022-10-24T08:17:08.274Z,68.6
2022-10-24T08:20:08.259Z,68.18
2022-10-24T08:23:08.260Z,66.58
2022-10-24T08:25:08.267Z,67.63
2022-10-24T08:28:09.069Z,69.45
2022-10-24T08:30:10.204Z,68.54
2022-10-24T08:33:08.229Z,67.36
2022-10-24T08:35:08.243Z,68.17
2022-10-24T08:38:08.234Z,68.92
2022-10-24T08:40:08.286Z,68.61
2022-10-24T08:43:08.950Z,69.06
2022-10-24T08:46:08.279Z,69.6
2022-10-24T08:48:08.282Z,69.41
2022-10-24T08:51:08.289Z,70.06
2022-10-24T08:54:08.313Z,68.08
2022-10-24T08:57:08.286Z,67.81
2022-10-24T09:00:08.240Z,69.73
2022-10-24T09:02:12.600Z,69.7
2022-10-24T09:04:08.284Z,69.59
2022-10-24T09:07:08.233Z,69.54
2022-10-24T09:09:08.505Z,69.13
2022-10-24T09:12:08.246Z,69.23
2022-10-24T09:14:08.285Z,68.37
2022-10-24T09:17:08.276Z,66.13
2022-10-24T09:20:08.282Z,68.2
2022-10-24T09:23:08.274Z,69.11
2022-10-24T09:25:08.288Z,68.81
2022-10-24T09:28:08.235Z,68.67
2022-10-24T09:30:08.711Z,68.48
2022-10-24T09:33:08.289Z,68.33
2022-10-24T09:35:08.267Z,67.59
2022-10-24T09:38:08.269Z,68.78
2022-10-24T09:40:08.283Z,68.99
2022-10-24T09:43:08.278Z,68.5
2022-10-24T09:46:08.270Z,68.37
2022-10-24T09:49:08.264Z,67.66
2022-10-24T09:52:08.279Z,67.9
2022-10-24T09:54:08.271Z,67.23
2022-10-24T09:56:08.271Z,67.13
2022-10-24T09:59:08.254Z,67.82
2022-10-24T10:01:08.332Z,66.39
2022-10-24T10:03:08.273Z,68.65
2022-10-24T10:06:08.299Z,68.18
2022-10-24T10:08:08.297Z,68.01
2022-10-24T10:11:08.298Z,68.38
2022-10-24T10:13:08.300Z,67.67
2022-10-24T10:16:09.296Z,67.73
2022-10-24T10:18:08.304Z,66.67
2022-10-24T10:21:08.310Z,66.51
2022-10-24T10:23:08.320Z,69.07
2022-10-24T10:26:08.229Z,66.78
2022-10-24T10:28:08.317Z,67.95
2022-10-24T10:31:08.246Z,67.95
2022-10-24T10:34:08.282Z,67.86
2022-10-24T10:37:08.271Z,68.03
2022-10-24T10:39:08.319Z,65.95
2022-10-24T10:42:08.272Z,67.28
2022-10-24T10:44:08.308Z,67.08
2022-10-24T10:47:08.903Z,66.84
2022-10-24T10:50:08.275Z,66.1
2022-10-24T10:52:08.288Z,65.86
2022-10-24T10:55:08.297Z,65.5
2022-10-24T10:57:08.279Z,65.51
2022-10-24T11:00:08.273Z,63.04
2022-10-24T11:03:08.286Z,64.32
2022-10-24T11:05:08.300Z,62.76
2022-10-24T11:08:08.274Z,63.46
2022-10-24T11:11:08.322Z,61.63
2022-10-24T11:14:08.291Z,60.84
2022-10-24T11:17:09.921Z,60.41
2022-10-24T11:19:09.502Z,59.83
2022-10-24T11:22:09.256Z,58.38
2022-10-24T11:25:08.291Z,58.45
2022-10-24T11:29:08.269Z,59.83
2022-10-24T11:31:08.297Z,60.34
2022-10-24T11:34:08.582Z,59.52
2022-10-24T11:37:08.291Z,59.5
2022-10-24T11:39:08.325Z,58.39
2022-10-24T11:42:08.314Z,57.72
2022-10-24T11:45:08.302Z,58.83
2022-10-24T11:47:08.290Z,59.26
2022-10-24T11:50:08.280Z,57.74
2022-10-24T11:52:08.316Z,59.11
2022-10-24T11:55:08.335Z,58.65
2022-10-24T11:58:08.311Z,59.84
2022-10-24T12:00:08.295Z,59.76
2022-10-24T12:03:08.337Z,58.23
2022-10-24T12:05:08.369Z,60.24
2022-10-24T12:08:08.299Z,59.37
2022-10-24T12:10:08.340Z,59.24
2022-10-24T12:13:08.271Z,60.05
2022-10-24T12:15:15.521Z,59.97
2022-10-24T12:18:08.270Z,60.85
2022-10-24T12:20:08.271Z,60.5
2022-10-24T12:22:15.329Z,58.68
2022-10-24T12:25:08.265Z,57.8
2022-10-24T12:27:08.289Z,56.63
2022-10-24T12:30:08.292Z,51.79
2022-10-24T12:32:08.255Z,51.43
2022-10-24T12:34:08.284Z,51.11
2022-10-24T12:37:08.273Z,50.67
2022-10-24T12:39:08.287Z,51.52
2022-10-24T12:42:08.261Z,50.63
2022-10-24T12:45:08.500Z,50.54
2022-10-24T12:47:08.287Z,51.19
2022-10-24T12:50:08.311Z,51.62
2022-10-24T12:53:08.267Z,53.63
2022-10-24T12:56:08.332Z,51.75
2022-10-24T12:59:08.317Z,50.33
2022-10-24T13:02:08.464Z,52.45
2022-10-24T13:05:08.299Z,54.7
2022-10-24T13:07:08.321Z,56.29
2022-10-24T13:10:08.334Z,57.5
2022-10-24T13:15:08.330Z,55.23
2022-10-24T13:18:08.291Z,55.28
2022-10-24T13:21:11.458Z,56.04
2022-10-24T13:24:08.281Z,56.52
2022-10-24T13:26:08.288Z,57
2022-10-24T13:28:08.362Z,57.33
2022-10-24T13:31:08.305Z,57.91
2022-10-24T13:33:08.312Z,58.23
2022-10-24T13:36:08.310Z,58.88
2022-10-24T13:38:08.371Z,58.96
2022-10-24T13:41:08.454Z,58.78
2022-10-24T13:44:08.307Z,59.22
2022-10-24T13:46:12.116Z,59.68
2022-10-24T13:48:08.350Z,59.3
2022-10-24T13:50:08.352Z,59.42
2022-10-24T13:53:08.331Z,59.9
2022-10-24T13:56:08.337Z,59.78
2022-10-24T13:58:08.325Z,60.32
2022-10-24T14:00:08.354Z,60.41
2022-10-24T14:03:08.375Z,60.66
2022-10-24T14:05:08.300Z,60.59
2022-10-24T14:08:08.313Z,60.65
2022-10-24T14:10:08.358Z,59.85
2022-10-24T14:12:08.317Z,59.77
2022-10-24T14:14:10.087Z,58.81
2022-10-24T14:16:08.346Z,58.52
2022-10-24T14:19:09.993Z,58.11
2022-10-24T14:21:08.295Z,58.28
2022-10-24T14:23:08.309Z,57.9
2022-10-24T14:25:08.325Z,57.89
2022-10-24T14:28:08.344Z,57.92
2022-10-24T14:31:08.313Z,58.16
2022-10-24T14:33:08.696Z,58.07
2022-10-24T14:36:08.387Z,58.31
2022-10-24T14:39:08.409Z,58.34
2022-10-24T14:42:08.302Z,58.26
2022-10-24T14:44:08.513Z,58.25
2022-10-24T14:47:08.488Z,57.31
2022-10-24T14:49:08.580Z,57.21
2022-10-24T14:52:08.341Z,57.21
2022-10-24T14:55:08.327Z,57.43
2022-10-24T14:58:08.316Z,57.98
2022-10-24T15:00:08.385Z,58.23
2022-10-24T15:03:08.319Z,58.85
2022-10-24T15:05:08.527Z,58.7
2022-10-24T15:08:21.387Z,58.33
2022-10-24T15:11:08.292Z,57.35
2022-10-24T15:14:08.377Z,56.87
2022-10-24T15:17:08.341Z,57.38
2022-10-24T15:20:08.328Z,57.41
2022-10-24T15:22:08.378Z,57.68
2022-10-24T15:25:08.376Z,58.04
2022-10-24T15:27:08.323Z,58.22
2022-10-24T15:30:08.329Z,58.51
2022-10-24T15:32:08.351Z,58.72
2022-10-24T15:35:08.349Z,58.97
2022-10-24T15:38:08.318Z,59.14
2022-10-24T15:40:08.351Z,59.93
2022-10-24T15:43:08.356Z,60.04
2022-10-24T15:46:08.304Z,59.85
2022-10-24T15:48:08.298Z,59.49
2022-10-24T15:50:08.320Z,59.8
2022-10-24T15:52:08.358Z,60.04
2022-10-24T15:55:08.328Z,60.52
2022-10-24T15:57:08.326Z,60.66
2022-10-24T15:59:08.329Z,60.6
2022-10-24T16:02:08.346Z,61.03
2022-10-24T16:04:08.393Z,60.94
2022-10-24T16:09:08.372Z,61.37
2022-10-24T16:12:08.354Z,61.65
2022-10-24T16:14:08.338Z,61.56
2022-10-24T16:17:08.346Z,62.04
2022-10-24T16:20:08.322Z,62.12
2022-10-24T16:22:08.336Z,62.14
2022-10-24T16:24:08.359Z,62.15
2022-10-24T16:27:08.334Z,62.58
2022-10-24T16:29:08.348Z,62.46
2022-10-24T16:31:08.380Z,62.32
2022-10-24T16:34:08.365Z,62.59
2022-10-24T16:36:08.371Z,62.36
2022-10-24T16:38:08.374Z,62.69
2022-10-24T16:40:08.489Z,62.68
2022-10-24T16:43:08.374Z,62.77
2022-10-24T16:46:08.390Z,62.7
2022-10-24T16:49:08.369Z,62.73
2022-10-24T16:52:08.360Z,62.63
2022-10-24T16:54:08.364Z,62.76
2022-10-24T16:56:08.384Z,62.58
2022-10-24T16:58:08.635Z,62.34
2022-10-24T17:01:08.444Z,62.35
2022-10-24T17:04:08.349Z,62.34
2022-10-24T17:06:08.383Z,62.15
2022-10-24T17:08:08.382Z,62.18
2022-10-24T17:10:08.430Z,62.21
2022-10-24T17:13:08.737Z,62.23
2022-10-24T17:16:08.353Z,62.17
2022-10-24T17:18:08.349Z,62.02
2022-10-24T17:21:08.375Z,61.7
2022-10-24T17:24:08.368Z,61.54
2022-10-24T17:27:08.373Z,61.62
2022-10-24T17:29:08.360Z,61.7
2022-10-24T17:33:08.670Z,61.64
2022-10-24T17:36:08.420Z,61.47
2022-10-24T17:39:09.968Z,61.21
2022-10-24T17:41:08.516Z,61.17
2022-10-24T17:43:09.153Z,61.36
2022-10-24T17:46:08.359Z,61.07
2022-10-24T17:48:08.381Z,61.06
2022-10-24T17:51:08.417Z,61.19
2022-10-24T17:54:08.384Z,61.15
2022-10-24T17:56:08.491Z,61.12
2022-10-24T17:59:08.373Z,61.09
2022-10-24T18:02:08.532Z,60.7
2022-10-24T18:04:08.412Z,60.69
2022-10-24T18:06:18.650Z,60.48
2022-10-24T18:09:08.357Z,60.6
2022-10-24T18:12:08.402Z,60.44
2022-10-24T18:15:08.357Z,60.48
2022-10-24T18:17:08.480Z,60.16
2022-10-24T18:20:08.348Z,60.28
2022-10-24T18:22:08.456Z,60.28
2022-10-24T18:25:08.382Z,60.19
2022-10-24T18:28:08.382Z,60.43
2022-10-24T18:30:09.062Z,60.24
2022-10-24T18:33:08.430Z,60.62
2022-10-24T18:35:08.423Z,60.24
2022-10-24T18:38:08.395Z,60.69
2022-10-24T18:40:08.404Z,60.39
2022-10-24T18:44:08.399Z,60.9
2022-10-24T18:47:08.558Z,61.19
2022-10-24T18:50:08.406Z,61.33
2022-10-24T18:52:08.425Z,60.96
2022-10-24T18:55:08.378Z,61.3
2022-10-24T18:57:08.377Z,61.42
2022-10-24T18:59:08.381Z,61.03
2022-10-24T19:01:08.512Z,61.7
2022-10-24T19:04:08.408Z,61.69
2022-10-24T19:06:08.428Z,61.91
2022-10-24T19:09:08.387Z,62.24
2022-10-24T19:12:08.425Z,62.34
2022-10-24T19:15:08.407Z,62.57
2022-10-24T19:17:10.076Z,62.57
2022-10-24T19:20:08.405Z,62.53
2022-10-24T19:22:08.439Z,62.69
2022-10-24T19:25:08.415Z,62.18
2022-10-24T19:28:08.437Z,62.24
2022-10-24T19:31:08.442Z,62.49
2022-10-24T19:33:09.240Z,62.32
2022-10-24T19:36:08.494Z,62.02
2022-10-24T19:39:08.414Z,62.17
2022-10-24T19:41:08.417Z,61.52
2022-10-24T19:43:08.417Z,61.62
2022-10-24T19:45:08.426Z,61.44
2022-10-24T19:47:08.443Z,61.97
2022-10-24T19:49:08.490Z,61.82
2022-10-24T19:52:08.444Z,61.23
2022-10-24T19:55:08.416Z,61.39
2022-10-24T19:58:08.374Z,61.58
2022-10-24T20:00:08.411Z,61.04
2022-10-24T20:03:08.440Z,61.38
2022-10-24T20:06:08.419Z,61.45
2022-10-24T20:08:08.402Z,61.34
2022-10-24T20:11:08.461Z,61.37
2022-10-24T20:14:08.427Z,60.89
2022-10-24T20:17:08.408Z,61.41
2022-10-24T20:19:09.095Z,61.24
2022-10-24T20:22:08.375Z,61.29
2022-10-24T20:24:08.440Z,61.36
2022-10-24T20:27:08.422Z,61.48
2022-10-24T20:30:08.363Z,61.22
2022-10-24T20:32:08.449Z,61.42
2022-10-24T20:35:08.404Z,61.56
2022-10-24T20:38:08.373Z,61.09
2022-10-24T20:41:08.405Z,61.4
2022-10-24T20:43:08.394Z,61.59
2022-10-24T20:46:08.421Z,61.59
2022-10-24T20:49:08.380Z,61.13
2022-10-24T20:51:08.949Z,61.25
2022-10-24T20:54:08.406Z,61.33
2022-10-24T20:57:08.400Z,61.49
2022-10-24T20:59:08.436Z,61.35
2022-10-24T21:01:08.568Z,61.39
2022-10-24T21:04:08.452Z,61.36
2022-10-24T21:07:08.448Z,61.16
2022-10-24T21:09:08.464Z,61.3
2022-10-24T21:11:08.460Z,61.39
2022-10-24T21:15:08.444Z,61.38
2022-10-24T21:18:08.432Z,61.05
2022-10-24T21:21:08.418Z,61.21
2022-10-24T21:23:08.743Z,61.11
2022-10-24T21:26:08.469Z,61.07
2022-10-24T21:29:14.739Z,61.25
2022-10-24T21:32:08.398Z,61.14
2022-10-24T21:34:08.476Z,60.91
2022-10-24T21:37:08.398Z,61.37
2022-10-24T21:39:08.459Z,61.39
2022-10-24T21:42:08.421Z,61.48
2022-10-24T21:44:08.398Z,61.25
2022-10-24T21:46:08.434Z,61.4
2022-10-24T21:49:08.431Z,61.46
2022-10-24T21:52:08.430Z,61.67
2022-10-24T21:54:08.415Z,61.32
2022-10-24T21:56:08.516Z,61.65
2022-10-24T21:59:09.437Z,61.36
2022-10-24T22:01:08.657Z,61.74
2022-10-24T22:04:08.416Z,61.76
2022-10-24T22:06:08.443Z,61.88
2022-10-24T22:09:08.434Z,61.59
2022-10-24T22:12:08.424Z,61.87
2022-10-24T22:14:08.457Z,61.92
2022-10-24T22:17:08.409Z,62.13
2022-10-24T22:20:08.426Z,61.79
2022-10-24T22:22:08.424Z,62.29
2022-10-24T22:25:08.888Z,62.04
2022-10-24T22:28:08.473Z,62.42
2022-10-24T22:31:08.421Z,62.2
2022-10-24T22:34:08.441Z,62.28
2022-10-24T22:37:08.460Z,62.1
2022-10-24T22:40:08.431Z,62.11
2022-10-24T22:45:08.489Z,62.13
2022-10-24T22:48:08.438Z,62.04
2022-10-24T22:50:08.456Z,62.13
2022-10-24T22:53:08.440Z,61.86
2022-10-24T22:56:08.443Z,61.89
2022-10-24T22:58:08.447Z,61.85
2022-10-24T23:00:08.460Z,61.8
2022-10-24T23:02:08.600Z,61.77
2022-10-24T23:05:08.463Z,61.79
2022-10-24T23:08:08.445Z,61.71
2022-10-24T23:10:08.479Z,61.89
2022-10-24T23:13:08.451Z,61.64
2022-10-24T23:15:08.458Z,61.69
2022-10-24T23:17:08.512Z,61.46
2022-10-24T23:20:08.455Z,61.61
2022-10-24T23:22:08.453Z,61.5
2022-10-24T23:24:08.465Z,61.37
2022-10-24T23:26:08.477Z,61.31
2022-10-24T23:28:08.512Z,61.29
2022-10-24T23:31:08.485Z,61.1
2022-10-24T23:34:08.486Z,61.02
2022-10-24T23:38:08.498Z,60.95
2022-10-24T23:41:08.451Z,61.28
2022-10-24T23:43:08.445Z,61.12
2022-10-24T23:45:08.471Z,61.09
2022-10-24T23:48:08.480Z,60.92
2022-10-24T23:51:08.483Z,60.61
2022-10-24T23:54:08.476Z,61.04
2022-10-24T23:57:08.467Z,60.86
2022-10-24T23:59:08.469Z,61.06
